Lloyd Harbor, New York
Current Conditions -  °F | °C
As of 3:53 PM on Friday 28 Nov 2014 (Local Time) from KFRG Reporting Station
Few Clouds Few Clouds  
Wind Chill: 27°   Ceiling: Unl
Heat Index: 35°   Visibility: 10mi
Dew Point: 16°   Wind: 10mph
Humidity: 46%   Direction: 310°NW
Pressure: 30.18"   Gusts: 17mph
Location:  40.8966°N, 73.4362°W
Report Text: KFRG 282053Z 31009G15KT 10SM FEW048 02/M09 A3018 RMK AO2 SLP219 T00171089 53014
Loading
Personal Weather Stations






























Interactive Weather Map New forecast layout! Learn more

10-Day Weather Forecast

Advertisements
Track Severe Weather on mobile